Flight Track Log - Related Links

Times and Time Zones

All times are in EDT time to prevent confusion due to time zone crossing. See the N400PU flight status page for this flight to view local times or setup timezone preferences in your user account.

Time Position Orientation Groundspeed Altitude Reporting Facility
EDT Latitude Longitude Course Direction KTS MPH feet Rate Location/Type
Wed 11:12:24 AM 40.4081 -86.9003 91° East 196 226 2,000  Level Chicago Center
Wed 11:13:55 AM 40.4067 -86.8047 91° East 199 229 5,500 2,157 Climbing Chicago Center
Wed 11:14:57 AM 40.3967 -86.7142 98° East 250 288 7,500 2,565 Climbing Chicago Center
Wed 11:15:59 AM 40.3839 -86.5958 98° East 273 314 10,800 2,903 Climbing Chicago Center
Wed 11:17:01 AM 40.3722 -86.4906 98° East 278 320 13,500 2,419 Climbing Chicago Center
Wed 11:18:03 AM 40.3603 -86.3947 99° East 280 322 15,800 2,129 Climbing Chicago Center
Wed 11:19:05 AM 40.3481 -86.2900 99° East 290 334 17,900 1,951 Climbing Chicago Center
Wed 11:20:06 AM 40.3328 -86.1811 100° East 304 350 19,800 1,854 Climbing Chicago Center
Wed 11:21:08 AM 40.3092 -86.0694 105° East 315 362 21,700 1,839 Climbing Chicago Center
Wed 11:22:10 AM 40.2847 -85.9592 106° East 316 364 23,600 1,597 Climbing Chicago Center
Wed 11:23:12 AM 40.2550 -85.8247 106° East 319 367 25,000 677 Climbing Chicago Center
Wed 11:24:14 AM 40.2272 -85.6958 106° East 360 414 25,000  Level Chicago Center
Wed 11:25:16 AM 40.1961 -85.5558 106° East 392 451 25,000  Level Chicago Center
Wed 11:26:17 AM 40.1625 -85.4067 106° East 414 476 25,000 829 Level Chicago Center
Wed 11:27:19 AM 40.1264 -85.2564 107° East 428 493 26,700 1,984 Climbing Chicago Center
Wed 11:28:21 AM 40.0931 -85.1150 107° East 424 488 29,100 2,032 Climbing Chicago Center
Wed 11:29:23 AM 40.0639 -84.9842 106° East 400 460 30,900 1,632 Climbing Chicago Center
Wed 11:30:26 AM 40.0275 -84.8286 107° East 383 441 32,500 1,016 Climbing Chicago Center
Wed 11:31:27 AM 39.9972 -84.7000 107° East 377 434 33,000 703 Climbing Chicago Center
Wed 11:32:51 AM 39.9586 -84.5300 106° East 387 445 34,200 910 Climbing Indianapolis Center
Wed 11:33:52 AM 39.9203 -84.3711 107° East 385 443 35,200 878 Climbing Indianapolis Center
Wed 11:34:54 AM 39.8892 -84.2397 107° East 382 440 36,000 726 Climbing Indianapolis Center
Wed 11:35:56 AM 39.8578 -84.1089 107° East 381 438 36,700 488 Climbing Indianapolis Center
Wed 11:36:57 AM 39.8264 -83.9772 107° East 383 441 37,000 146 Climbing Indianapolis Center
Wed 11:37:59 AM 39.7933 -83.8411 108° East 397 457 37,000  Level Indianapolis Center
Wed 11:39:01 AM 39.7589 -83.7000 108° East 412 474 37,000  Level Indianapolis Center
Wed 11:40:02 AM 39.7158 -83.5292 108° East 425 489 37,000  Level Indianapolis Center
Wed 11:41:04 AM 39.6814 -83.3825 107° East 435 501 37,000  Level Indianapolis Center
Wed 11:42:06 AM 39.6450 -83.2342 108° East 437 503 37,000  Level Indianapolis Center
Wed 11:43:07 AM 39.6078 -83.0825 108° East 443 510 37,000  Level Indianapolis Center
Wed 11:44:09 AM 39.5703 -82.9311 108° East 443 510 37,000  Level Indianapolis Center
Wed 11:45:11 AM 39.5242 -82.7522 108° East 440 506 37,000 -244 Level Indianapolis Center
Wed 11:46:12 AM 39.4875 -82.6064 108° East 431 496 36,500 -927 Descending Indianapolis Center
Wed 11:47:14 AM 39.4497 -82.4594 108° East 433 498 35,100 -1,403 Descending Indianapolis Center
Wed 11:48:16 AM 39.4108 -82.3072 108° East 436 502 33,600 -1,024 Descending Indianapolis Center
Wed 11:49:17 AM 39.3736 -82.1622 108° East 428 493 33,000 -293 Descending Indianapolis Center
Wed 11:50:19 AM 39.3347 -82.0136 109° East 432 497 33,000  Level Indianapolis Center
Wed 11:51:21 AM 39.2950 -81.8642 109° East 438 504 33,000  Level Indianapolis Center
Wed 11:52:22 AM 39.2567 -81.7156 108° East 435 501 33,000  Level Indianapolis Center
Wed 11:53:24 AM 39.2175 -81.5675 109° East 433 498 33,000  Level Indianapolis Center
Wed 11:54:26 AM 39.1689 -81.3869 109° East 439 505 33,000  Level Indianapolis Center
Wed 11:55:27 AM 39.1275 -81.2331 109° East 448 516 33,000 -488 Level Indianapolis Center
Wed 11:56:29 AM 39.0881 -81.0822 109° East 444 511 32,000 -1,355 Descending Indianapolis Center
Wed 11:57:31 AM 39.0467 -80.9319 109° East 443 510 30,200 -968 Descending Indianapolis Center
Wed 11:58:33 AM 39.0044 -80.7839 110° East 441 507 30,000 -98 Descending Indianapolis Center
Wed 11:59:34 AM 38.9539 -80.6431 115° Southeast 433 498 30,000  Level Indianapolis Center
Wed 12:00:36 PM 38.9017 -80.4994 115° Southeast 440 506 30,000 -339 Level Indianapolis Center
Wed 12:01:38 PM 38.8511 -80.3547 114° Southeast 443 510 29,300 -1,258 Descending Indianapolis Center
Wed 12:02:40 PM 38.8011 -80.2158 115° Southeast 433 498 27,400 -2,049 Descending Indianapolis Center
Wed 12:03:41 PM 38.7406 -80.0500 115° Southeast 427 491 25,100 -2,049 Descending Indianapolis Center
Wed 12:04:43 PM 38.6897 -79.9144 116° Southeast 422 486 23,200 -1,935 Descending Indianapolis Center
Wed 12:05:45 PM 38.6414 -79.7817 115° Southeast 413 475 21,100 -2,049 Descending Indianapolis Center
Wed 12:06:46 PM 38.5892 -79.6464 116° Southeast 401 461 19,000 -1,951 Descending Indianapolis Center
Wed 12:07:48 PM 38.5439 -79.5225 115° Southeast 397 457 17,100 -1,887 Descending Indianapolis Center
Wed 12:08:50 PM 38.4997 -79.4019 115° Southeast 387 445 15,100 -1,951 Descending Indianapolis Center
Wed 12:09:51 PM 38.4603 -79.2958 115° Southeast 376 433 13,100 -2,016 Descending Washington Center
Wed 12:10:52 PM 38.4217 -79.1906 115° Southeast 349 402 11,000 -1,537 Descending Washington Center
Wed 12:11:52 PM 38.3808 -79.0881 117° Southeast 308 354 10,000 -550 Descending Washington Center
Wed 12:12:52 PM 38.3461 -78.9936 115° Southeast 297 342 9,900 -1,017 Descending Washington Center
Wed 12:13:50 PM 38.3111 -78.9047 117° Southeast 287 330 8,000 -1,983 Descending Washington Center
Wed 12:14:50 PM 38.2781 -78.8133 115° Southeast 282 325 6,000 -1,525 Descending Washington Center
Wed 12:15:52 PM 38.2528 -78.7436 115° Southeast 257 296 4,900 -541 Descending Washington Center
Wed 12:16:52 PM 38.2217 -78.6628 116° Southeast 251 289 4,900 -153 Level Washington Center
Wed 12:17:50 PM 38.1942 -78.5931 117° Southeast 239 275 4,600 -966 Descending Washington Center
Wed 12:18:50 PM 38.1647 -78.5206 117° Southeast 225 259 3,000 -1,088 Descending Washington Center
Wed 12:21:03 PM 38.1000 -78.4667 147° Southeast 150 173 1,100 -857 Descending Potomac TRACON
Wed 12:23:00 PM 38.1333 -78.4500 108° East  Level FlightAware Approximate
Wed 12:30:00 PM 38.1396 -78.4523 108° East  Level Estimated

Login

Don't have an account? Register now (free) for customized features, flight alerts, and more!